Terminal Aerodrome Forecast
Issued by NWS

Home | Current Version | Previous Version | Text Only | Print | Product List | Glossary On
Versions: 1 2 3 4 5 6 7 8 9 10 11 12 13 14 15 16 17
740
FTUS43 KIND 281731
TAFBMG
TAF
KBMG 281731Z 2818/2918 20008KT P6SM VCSH SCT100 BKN200
     FM281900 19012KT P6SM VCTS SCT030CB BKN050
      TEMPO 2820/2824 3SM -TSRA BR OVC025CB
     FM290000 18006KT P6SM BKN100
     FM290500 20004KT 5SM BR SCT080
     FM291400 21006KT P6SM BKN040 BKN080=

USA.gov is the U.S. government's official web portal to all federal, state and local government web resources and services.